Time;durP1;ratioP1;P1;durP2;ratioP2;P2;SDS_P1;SDS_P2;PMS_P1;PMS_P2;Temp;Humidity;BMP_temperature;BMP_pressure;BME280_temperature;BME280_humidity;BME280_pressure;Samples;Min_cycle;Max_cycle;Signal;HPM_P1;HPM_P2
2022/05/24 00:01:33;;;;;;;2.60;2.38;;;;;;;;;;5050785;28;20028;-78
2022/05/24 00:03:59;;;;;;;5.32;2.72;;;;;;;;;;5049137;28;20519;-78
2022/05/24 00:06:29;;;;;;;6.35;3.03;;;;;;;;;;5049300;28;20021;-77
2022/05/24 00:08:54;;;;;;;8.27;2.90;;;;;;;;;;5051370;28;20041;-77
2022/05/24 00:11:20;;;;;;;4.90;3.10;;;;;;;;;;5049966;28;20032;-76
2022/05/24 00:13:45;;;;;;;5.32;2.90;;;;;;;;;;5050240;28;20029;-77
2022/05/24 00:16:12;;;;;;;4.53;3.20;;;;;;;;;;5049994;28;20037;-78
2022/05/24 00:18:37;;;;;;;5.78;2.92;;;;;;;;;;5050296;28;20037;-75
2022/05/24 00:21:05;;;;;;;4.13;2.88;;;;;;;;;;5067993;28;20388;-78
2022/05/24 00:23:32;;;;;;;3.63;2.78;;;;;;;;;;5050306;28;20426;-78
2022/05/24 00:26:09;;;;;;;6.07;3.25;;;;;;;;;;5050522;28;20049;-78
2022/05/24 00:28:36;;;;;;;2.92;2.70;;;;;;;;;;5049551;28;20025;-77
2022/05/24 00:31:03;;;;;;;6.32;2.85;;;;;;;;;;5051592;28;20025;-78
2022/05/24 00:33:31;;;;;;;7.18;3.20;;;;;;;;;;5053162;28;20124;-77
2022/05/24 00:35:56;;;;;;;6.65;3.10;;;;;;;;;;5051784;28;20240;-78
2022/05/24 00:38:33;;;;;;;5.63;3.20;;;;;;;;;;5054221;28;20029;-78
2022/05/24 00:41:26;;;;;;;4.63;3.35;;;;;;;;;;5054792;28;20071;-78
2022/05/24 00:44:12;;;;;;;5.55;2.92;;;;;;;;;;5059698;28;20572;-77
2022/05/24 00:46:49;;;;;;;5.70;3.13;;;;;;;;;;5069363;28;20086;-77
2022/05/24 00:49:24;;;;;;;5.65;3.13;;;;;;;;;;5052567;28;20033;-78
2022/05/24 00:51:55;;;;;;;9.18;3.47;;;;;;;;;;5054409;28;20091;-77
2022/05/24 00:54:21;;;;;;;5.53;2.90;;;;;;;;;;5052665;28;20028;-77
2022/05/24 00:57:02;;;;;;;3.55;3.13;;;;;;;;;;5052720;28;20067;-78
2022/05/24 00:59:51;;;;;;;7.60;2.92;;;;;;;;;;5053057;28;20025;-77
2022/05/24 01:02:17;;;;;;;3.97;3.08;;;;;;;;;;5053981;28;20124;-77
2022/05/24 01:04:42;;;;;;;5.35;3.65;;;;;;;;;;5052850;28;20529;-76
2022/05/24 01:07:08;;;;;;;7.22;3.58;;;;;;;;;;5052427;28;20470;-77
2022/05/24 01:09:55;;;;;;;7.70;2.85;;;;;;;;;;5035494;28;20047;-78
2022/05/24 01:12:30;;;;;;;6.63;3.13;;;;;;;;;;5051966;28;20167;-76
2022/05/24 01:14:58;;;;;;;4.85;2.85;;;;;;;;;;5053197;28;20024;-78
2022/05/24 01:17:23;;;;;;;5.93;3.53;;;;;;;;;;5052206;28;20108;-76
2022/05/24 01:19:49;;;;;;;4.22;3.38;;;;;;;;;;5053216;28;20143;-78
2022/05/24 01:22:44;;;;;;;5.78;2.92;;;;;;;;;;5052319;28;20066;-77
2022/05/24 01:25:37;;;;;;;4.55;2.97;;;;;;;;;;5047003;28;20044;-79
2022/05/24 01:28:19;;;;;;;3.85;2.42;;;;;;;;;;5053085;28;20032;-77
2022/05/24 01:30:45;;;;;;;3.05;2.60;;;;;;;;;;5037209;28;20476;-78
2022/05/24 01:36:09;;;;;;;8.30;3.03;;;;;;;;;;5053464;28;20067;-78
2022/05/24 01:38:36;;;;;;;8.63;2.78;;;;;;;;;;5052505;28;20108;-77
2022/05/24 01:41:03;;;;;;;4.38;2.15;;;;;;;;;;5052838;28;20473;-77
2022/05/24 01:43:29;;;;;;;7.28;2.95;;;;;;;;;;5071134;28;20101;-76
2022/05/24 01:46:03;;;;;;;5.30;2.50;;;;;;;;;;5073493;28;20032;-77
2022/05/24 01:48:55;;;;;;;8.13;2.90;;;;;;;;;;5073352;28;20031;-78
2022/05/24 01:51:31;;;;;;;3.30;2.50;;;;;;;;;;5031338;28;20041;-79
2022/05/24 01:54:01;;;;;;;3.28;2.40;;;;;;;;;;5031849;28;20102;-78
2022/05/24 01:56:48;;;;;;;4.82;2.55;;;;;;;;;;5032862;28;20117;-77
2022/05/24 01:59:16;;;;;;;2.78;2.35;;;;;;;;;;5031681;28;20096;-77
2022/05/24 02:01:51;;;;;;;4.25;2.80;;;;;;;;;;5015153;28;20087;-77
2022/05/24 02:04:18;;;;;;;6.65;2.80;;;;;;;;;;5035972;28;20025;-77
2022/05/24 02:06:44;;;;;;;3.70;2.60;;;;;;;;;;5053553;28;20500;-77
2022/05/24 02:09:11;;;;;;;4.00;2.75;;;;;;;;;;5051604;28;20162;-78
2022/05/24 02:11:37;;;;;;;8.32;3.38;;;;;;;;;;5051013;28;20449;-78
2022/05/24 02:14:14;;;;;;;4.18;2.50;;;;;;;;;;5052594;28;20559;-77
2022/05/24 02:16:54;;;;;;;8.57;3.13;;;;;;;;;;5034888;28;20024;-76
2022/05/24 02:19:20;;;;;;;3.80;2.80;;;;;;;;;;5039373;28;20056;-77
2022/05/24 02:21:53;;;;;;;5.53;3.03;;;;;;;;;;5072599;28;20104;-77
2022/05/24 02:24:21;;;;;;;4.28;3.38;;;;;;;;;;5070803;28;20033;-78
2022/05/24 02:26:48;;;;;;;4.93;3.10;;;;;;;;;;5072327;28;20024;-77
2022/05/24 02:29:15;;;;;;;4.70;3.80;;;;;;;;;;5050138;28;20032;-77
2022/05/24 02:31:41;;;;;;;3.42;3.05;;;;;;;;;;5052629;28;20131;-78
2022/05/24 02:34:07;;;;;;;4.95;2.95;;;;;;;;;;5051809;28;20388;-77
2022/05/24 02:36:32;;;;;;;4.40;2.95;;;;;;;;;;5052718;28;20046;-78
2022/05/24 02:38:58;;;;;;;4.78;3.45;;;;;;;;;;5052669;28;20198;-77
2022/05/24 02:41:31;;;;;;;5.78;3.53;;;;;;;;;;5052012;28;20430;-78
2022/05/24 02:44:07;;;;;;;5.40;2.72;;;;;;;;;;5059294;28;20396;-78
2022/05/24 02:46:34;;;;;;;5.68;2.30;;;;;;;;;;5053780;28;20395;-76
2022/05/24 02:49:00;;;;;;;2.60;2.40;;;;;;;;;;5071628;28;20369;-78
2022/05/24 02:51:26;;;;;;;4.35;2.80;;;;;;;;;;5071564;28;20035;-77
2022/05/24 02:53:52;;;;;;;2.97;2.50;;;;;;;;;;5053293;28;20462;-78
2022/05/24 02:56:18;;;;;;;6.03;2.30;;;;;;;;;;5053636;28;20029;-78
2022/05/24 02:58:44;;;;;;;4.22;2.20;;;;;;;;;;5053653;28;20384;-77
2022/05/24 03:01:19;;;;;;;9.10;3.30;;;;;;;;;;5053260;28;20029;-77
2022/05/24 03:03:47;;;;;;;7.70;2.72;;;;;;;;;;5071636;28;20048;-77
2022/05/24 03:06:12;;;;;;;5.10;2.55;;;;;;;;;;5049411;28;20127;-78
2022/05/24 03:11:23;;;;;;;3.75;2.20;;;;;;;;;;5051709;28;20539;-79
2022/05/24 03:16:45;;;;;;;6.35;2.92;;;;;;;;;;5066272;28;20411;-71
2022/05/24 03:19:10;;;;;;;9.77;3.20;;;;;;;;;;5066213;28;20562;-70
2022/05/24 03:21:36;;;;;;;7.93;2.58;;;;;;;;;;5065105;28;20057;-71
2022/05/24 03:24:01;;;;;;;8.27;3.20;;;;;;;;;;5048847;28;20104;-70
2022/05/24 03:26:27;;;;;;;7.20;4.03;;;;;;;;;;5046213;28;20029;-70
2022/05/24 03:28:52;;;;;;;9.70;3.75;;;;;;;;;;5044876;28;20033;-70
2022/05/24 03:31:18;;;;;;;5.70;2.83;;;;;;;;;;5044521;28;20131;-71
2022/05/24 03:33:44;;;;;;;6.20;2.95;;;;;;;;;;5045865;28;20135;-70
2022/05/24 03:36:10;;;;;;;5.95;2.90;;;;;;;;;;5045833;28;20469;-70
2022/05/24 03:38:35;;;;;;;4.65;2.35;;;;;;;;;;5044548;28;20075;-70
2022/05/24 03:41:01;;;;;;;3.92;2.30;;;;;;;;;;5045779;28;20049;-71
2022/05/24 03:43:27;;;;;;;8.35;3.05;;;;;;;;;;5046345;28;20103;-70
2022/05/24 03:46:04;;;;;;;4.40;2.25;;;;;;;;;;5044610;28;20029;-71
2022/05/24 03:48:30;;;;;;;3.03;2.05;;;;;;;;;;5044755;28;20104;-71
2022/05/24 03:50:56;;;;;;;7.05;2.38;;;;;;;;;;5045532;28;20456;-69
2022/05/24 03:53:23;;;;;;;6.28;2.38;;;;;;;;;;5045568;28;20522;-70
2022/05/24 03:55:49;;;;;;;8.02;2.65;;;;;;;;;;5045738;28;20029;-71
2022/05/24 03:58:14;;;;;;;4.93;2.17;;;;;;;;;;5045370;28;20504;-70
2022/05/24 04:00:41;;;;;;;1.98;1.70;;;;;;;;;;5046311;28;20124;-71
2022/05/24 04:03:08;;;;;;;7.35;2.13;;;;;;;;;;5044229;28;20035;-71
2022/05/24 04:05:33;;;;;;;3.35;1.77;;;;;;;;;;5045199;28;20461;-71
2022/05/24 04:08:00;;;;;;;3.28;1.92;;;;;;;;;;5045397;28;20033;-70
2022/05/24 04:10:26;;;;;;;4.35;2.00;;;;;;;;;;5045451;28;20496;-70
2022/05/24 04:12:51;;;;;;;6.10;2.13;;;;;;;;;;5045437;28;20056;-70
2022/05/24 04:15:18;;;;;;;4.60;2.40;;;;;;;;;;5043400;28;20041;-70
2022/05/24 04:17:45;;;;;;;5.70;2.25;;;;;;;;;;5044097;28;20464;-70
2022/05/24 04:20:11;;;;;;;4.68;2.63;;;;;;;;;;5043621;28;20033;-71
2022/05/24 04:22:37;;;;;;;6.60;2.50;;;;;;;;;;5045048;28;20025;-72
2022/05/24 04:25:03;;;;;;;5.13;2.28;;;;;;;;;;5045277;28;20021;-71
2022/05/24 04:27:29;;;;;;;4.13;2.70;;;;;;;;;;5033442;28;20053;-70
2022/05/24 04:29:54;;;;;;;2.80;2.00;;;;;;;;;;5031771;28;20033;-72
2022/05/24 04:32:21;;;;;;;9.35;2.10;;;;;;;;;;5030416;28;20392;-71
2022/05/24 04:34:47;;;;;;;5.35;2.25;;;;;;;;;;5031694;28;20328;-71
2022/05/24 04:37:12;;;;;;;3.80;1.52;;;;;;;;;;5031495;28;20108;-71
2022/05/24 04:39:38;;;;;;;1.80;1.30;;;;;;;;;;5031943;28;20029;-70
2022/05/24 04:42:23;;;;;;;5.55;2.20;;;;;;;;;;5031678;28;20025;-71
2022/05/24 04:44:55;;;;;;;3.85;1.73;;;;;;;;;;5031824;28;20025;-71
2022/05/24 04:47:21;;;;;;;;;;;;;;;;;;5030385;28;20529;-72
2022/05/24 04:49:53;;;;;;;4.43;2.08;;;;;;;;;;5063281;28;19916;-70
2022/05/24 04:52:20;;;;;;;6.88;1.67;;;;;;;;;;5030307;28;20036;-72
2022/05/24 04:54:46;;;;;;;1.98;1.50;;;;;;;;;;5030810;28;20033;-72
2022/05/24 04:57:13;;;;;;;4.57;2.13;;;;;;;;;;5029445;28;20316;-71
2022/05/24 04:59:38;;;;;;;2.53;1.60;;;;;;;;;;5029668;28;20035;-70
2022/05/24 05:02:04;;;;;;;5.75;1.85;;;;;;;;;;5031085;28;20105;-71
2022/05/24 05:04:30;;;;;;;3.78;1.27;;;;;;;;;;5030313;28;20041;-70
2022/05/24 05:06:56;;;;;;;3.97;2.50;;;;;;;;;;5030725;28;20052;-71
2022/05/24 05:09:21;;;;;;;6.40;1.77;;;;;;;;;;5030879;28;20036;-70
2022/05/24 05:11:47;;;;;;;6.03;1.73;;;;;;;;;;5029859;28;20091;-74
2022/05/24 05:14:12;;;;;;;7.80;2.00;;;;;;;;;;5030686;28;20060;-74
2022/05/24 05:16:39;;;;;;;2.92;1.30;;;;;;;;;;5030839;28;20098;-75
2022/05/24 05:19:06;;;;;;;7.60;1.80;;;;;;;;;;5024074;28;20090;-72
2022/05/24 05:21:37;;;;;;;3.50;1.70;;;;;;;;;;5029641;28;20358;-72
2022/05/24 05:24:05;;;;;;;3.40;1.35;;;;;;;;;;5028344;28;20027;-73
2022/05/24 05:26:30;;;;;;;4.45;1.98;;;;;;;;;;5030057;28;20032;-74
2022/05/24 05:28:56;;;;;;;4.20;1.80;;;;;;;;;;5028245;28;20037;-74
2022/05/24 05:31:26;;;;;;;4.82;2.42;;;;;;;;;;5029167;28;20405;-73
2022/05/24 05:33:55;;;;;;;4.45;1.67;;;;;;;;;;5028618;28;20462;-75
2022/05/24 05:36:22;;;;;;;2.20;1.60;;;;;;;;;;5030424;28;20087;-73
2022/05/24 05:38:48;;;;;;;5.25;1.77;;;;;;;;;;5027396;28;20055;-73
2022/05/24 05:41:20;;;;;;;6.30;2.00;;;;;;;;;;5028158;28;20034;-75
2022/05/24 05:43:45;;;;;;;5.53;2.35;;;;;;;;;;5023999;28;20041;-74
2022/05/24 05:46:12;;;;;;;2.20;1.40;;;;;;;;;;5028887;28;20033;-74
2022/05/24 05:48:40;;;;;;;2.58;1.77;;;;;;;;;;5028270;28;20113;-75
2022/05/24 05:51:07;;;;;;;4.25;1.92;;;;;;;;;;5027978;28;20033;-74
2022/05/24 05:53:33;;;;;;;3.33;1.80;;;;;;;;;;5029944;28;20489;-73
2022/05/24 05:55:59;;;;;;;6.10;2.00;;;;;;;;;;5029407;28;20041;-74
2022/05/24 05:58:25;;;;;;;9.55;2.13;;;;;;;;;;5026250;28;20035;-74
2022/05/24 06:00:52;;;;;;;3.20;1.65;;;;;;;;;;5031670;28;20036;-74
2022/05/24 06:03:18;;;;;;;6.03;1.75;;;;;;;;;;5026405;28;20037;-73
2022/05/24 06:05:47;;;;;;;2.75;1.73;;;;;;;;;;5028903;28;20052;-73
2022/05/24 06:08:13;;;;;;;5.47;1.55;;;;;;;;;;5043702;28;20025;-73
2022/05/24 06:10:39;;;;;;;11.68;1.90;;;;;;;;;;5035758;28;20385;-74
2022/05/24 06:13:05;;;;;;;5.13;1.65;;;;;;;;;;5036063;28;20033;-74
2022/05/24 06:15:32;;;;;;;4.80;2.10;;;;;;;;;;5019738;28;20045;-73
2022/05/24 06:17:58;;;;;;;1.65;1.42;;;;;;;;;;5030230;28;20037;-73
2022/05/24 06:20:28;;;;;;;3.75;1.60;;;;;;;;;;5027792;28;20356;-73
2022/05/24 06:22:57;;;;;;;4.63;1.83;;;;;;;;;;5023571;28;20033;-72
2022/05/24 06:25:26;;;;;;;5.57;2.17;;;;;;;;;;5028969;28;20052;-73
2022/05/24 06:27:53;;;;;;;3.58;1.55;;;;;;;;;;5026979;28;20558;-75
2022/05/24 06:30:21;;;;;;;6.10;1.65;;;;;;;;;;5019937;28;20041;-71
2022/05/24 06:32:51;;;;;;;5.70;1.58;;;;;;;;;;5025177;28;20033;-75
2022/05/24 06:35:18;;;;;;;5.13;1.63;;;;;;;;;;5023990;28;20453;-74
2022/05/24 06:37:44;;;;;;;6.45;2.58;;;;;;;;;;5033783;28;20029;-73
2022/05/24 06:40:16;;;;;;;2.83;1.48;;;;;;;;;;5019015;28;20095;-72
2022/05/24 06:42:41;;;;;;;6.35;1.40;;;;;;;;;;5024509;28;20095;-72
2022/05/24 06:45:08;;;;;;;3.20;1.40;;;;;;;;;;5037336;28;20021;-74
2022/05/24 06:47:34;;;;;;;4.95;1.92;;;;;;;;;;5015100;28;20047;-74
2022/05/24 06:49:59;;;;;;;5.20;1.55;;;;;;;;;;5026916;28;20768;-74
2022/05/24 06:52:26;;;;;;;2.85;1.45;;;;;;;;;;5020423;28;20036;-73
2022/05/24 06:54:53;;;;;;;4.50;1.50;;;;;;;;;;5028663;28;20041;-74
2022/05/24 06:57:19;;;;;;;3.35;1.50;;;;;;;;;;5026382;28;20435;-74
2022/05/24 07:02:28;;;;;;;2.35;1.20;;;;;;;;;;5027248;28;20056;-74
2022/05/24 07:05:12;;;;;;;2.40;1.40;;;;;;;;;;5024538;28;20029;-73
2022/05/24 07:07:38;;;;;;;8.15;2.10;;;;;;;;;;5022068;28;20032;-72
2022/05/24 07:10:08;;;;;;;4.18;1.50;;;;;;;;;;5022078;28;20032;-73
2022/05/24 07:12:34;;;;;;;6.05;1.85;;;;;;;;;;5022271;28;20488;-74
2022/05/24 07:14:59;;;;;;;2.03;1.50;;;;;;;;;;5037040;28;20216;-73
2022/05/24 07:17:25;;;;;;;2.70;1.60;;;;;;;;;;5023632;28;20285;-73
2022/05/24 07:19:52;;;;;;;4.43;2.08;;;;;;;;;;5020821;28;20033;-72
2022/05/24 07:22:18;;;;;;;2.17;1.40;;;;;;;;;;5015479;28;20250;-73
2022/05/24 07:24:47;;;;;;;3.05;1.80;;;;;;;;;;5023232;28;20033;-74
2022/05/24 07:27:13;;;;;;;4.32;1.92;;;;;;;;;;5017218;28;20119;-72
2022/05/24 07:29:40;;;;;;;4.50;1.63;;;;;;;;;;5022082;28;20064;-72
2022/05/24 07:32:07;;;;;;;4.95;1.70;;;;;;;;;;5019107;28;20033;-72
2022/05/24 07:34:34;;;;;;;2.38;1.83;;;;;;;;;;5002005;28;20029;-73
2022/05/24 07:37:14;;;;;;;5.82;2.05;;;;;;;;;;5019784;28;20026;-73
2022/05/24 07:39:40;;;;;;;3.88;1.40;;;;;;;;;;5018350;28;20834;-72
2022/05/24 07:47:19;;;;;;;5.18;1.48;;;;;;;;;;5017021;28;20025;-74
2022/05/24 07:49:44;;;;;;;3.90;1.55;;;;;;;;;;5016697;28;20075;-73
2022/05/24 07:52:10;;;;;;;4.25;2.03;;;;;;;;;;5017257;28;20056;-73
2022/05/24 07:54:36;;;;;;;2.83;1.80;;;;;;;;;;5020748;28;20037;-73
2022/05/24 07:57:03;;;;;;;1.48;1.35;;;;;;;;;;5017494;28;21395;-73
2022/05/24 07:59:28;;;;;;;3.80;1.98;;;;;;;;;;5019393;28;20045;-73
2022/05/24 08:01:55;;;;;;;3.75;1.92;;;;;;;;;;5021600;28;20030;-74
2022/05/24 08:04:21;;;;;;;3.05;1.48;;;;;;;;;;5027413;28;20029;-73
2022/05/24 08:06:46;;;;;;;4.10;1.88;;;;;;;;;;5021767;28;20810;-73
2022/05/24 08:09:12;;;;;;;6.28;2.10;;;;;;;;;;5026999;28;20025;-74
2022/05/24 08:11:38;;;;;;;5.80;2.90;;;;;;;;;;5024109;28;20053;-74
2022/05/24 08:14:06;;;;;;;12.70;2.00;;;;;;;;;;5025588;28;20032;-72
2022/05/24 08:16:33;;;;;;;1.95;1.52;;;;;;;;;;5020954;28;20046;-73
2022/05/24 08:18:59;;;;;;;2.05;1.63;;;;;;;;;;5006596;28;20033;-74
2022/05/24 08:21:29;;;;;;;6.18;1.60;;;;;;;;;;5020482;28;20033;-73
2022/05/24 08:23:55;;;;;;;3.00;1.42;;;;;;;;;;5007977;28;20036;-74
2022/05/24 08:26:21;;;;;;;3.53;1.75;;;;;;;;;;5016666;28;20120;-74
2022/05/24 08:28:47;;;;;;;6.13;1.95;;;;;;;;;;5027457;28;20076;-73
2022/05/24 08:31:15;;;;;;;4.20;1.95;;;;;;;;;;5028002;28;20095;-73
2022/05/24 08:33:42;;;;;;;2.80;1.33;;;;;;;;;;5025052;28;20033;-73
2022/05/24 08:36:09;;;;;;;6.65;1.58;;;;;;;;;;5023891;28;20059;-74
2022/05/24 08:38:36;;;;;;;7.35;1.70;;;;;;;;;;5022735;28;20040;-73
2022/05/24 08:41:06;;;;;;;2.67;1.65;;;;;;;;;;5023191;28;20029;-72
2022/05/24 08:43:43;;;;;;;3.08;1.52;;;;;;;;;;5025594;28;20367;-74
2022/05/24 08:49:14;;;;;;;6.40;1.77;;;;;;;;;;5023477;28;20369;-72
2022/05/24 08:52:05;;;;;;;3.22;1.70;;;;;;;;;;5023013;28;20083;-73
2022/05/24 08:54:44;;;;;;;3.40;1.98;;;;;;;;;;5018934;28;20037;-74
2022/05/24 08:57:17;;;;;;;2.13;1.90;;;;;;;;;;5021389;28;20041;-74
2022/05/24 09:00:00;;;;;;;3.90;1.90;;;;;;;;;;5020381;28;20045;-73
2022/05/24 09:02:26;;;;;;;4.20;1.92;;;;;;;;;;5021220;28;20030;-73
2022/05/24 09:04:52;;;;;;;6.78;2.13;;;;;;;;;;5024506;28;20080;-73
2022/05/24 09:07:37;;;;;;;6.72;2.10;;;;;;;;;;5022951;28;20095;-73
2022/05/24 09:10:26;;;;;;;5.40;2.45;;;;;;;;;;5022032;28;20037;-74
2022/05/24 09:13:26;;;;;;;3.88;1.67;;;;;;;;;;5019327;28;20037;-75
2022/05/24 09:16:13;;;;;;;1.83;1.52;;;;;;;;;;4992430;28;20119;-72
2022/05/24 09:19:36;;;;;;;2.25;1.70;;;;;;;;;;5022500;28;20039;-73
2022/05/24 09:22:07;;;;;;;2.20;1.52;;;;;;;;;;4961144;28;20033;-73
2022/05/24 09:24:45;;;;;;;3.70;1.85;;;;;;;;;;4977648;28;20218;-73
2022/05/24 09:27:15;;;;;;;6.80;2.10;;;;;;;;;;4975504;28;20045;-73
2022/05/24 09:29:58;;;;;;;2.55;1.80;;;;;;;;;;4975552;28;20052;-72
2022/05/24 09:32:39;;;;;;;4.97;1.92;;;;;;;;;;5019934;28;20060;-73
2022/05/24 09:35:21;;;;;;;4.85;1.98;;;;;;;;;;5018987;28;20127;-73
2022/05/24 09:38:08;;;;;;;5.38;1.80;;;;;;;;;;5033602;28;20038;-74
2022/05/24 09:41:13;;;;;;;4.72;1.90;;;;;;;;;;5021341;28;20033;-73
2022/05/24 09:43:40;;;;;;;13.27;2.63;;;;;;;;;;5020596;28;20331;-72
2022/05/24 09:46:22;;;;;;;6.45;2.10;;;;;;;;;;5020970;28;20457;-73
2022/05/24 09:48:56;;;;;;;6.45;2.03;;;;;;;;;;5019675;28;20163;-73
2022/05/24 09:51:42;;;;;;;4.20;1.67;;;;;;;;;;5020030;28;20037;-73
2022/05/24 09:54:20;;;;;;;2.03;1.63;;;;;;;;;;5018765;28;20557;-73
2022/05/24 09:57:20;;;;;;;3.25;1.50;;;;;;;;;;5018410;28;20052;-73
2022/05/24 10:00:09;;;;;;;9.55;2.10;;;;;;;;;;5016805;28;20876;-73
2022/05/24 10:02:39;;;;;;;2.55;1.48;;;;;;;;;;5021434;28;20033;-73
2022/05/24 10:05:20;;;;;;;1.67;1.57;;;;;;;;;;5017670;28;20041;-73
2022/05/24 10:08:13;;;;;;;3.92;1.80;;;;;;;;;;5001733;28;20443;-73
2022/05/24 10:10:46;;;;;;;3.78;1.75;;;;;;;;;;5023962;28;20041;-74
2022/05/24 10:13:30;;;;;;;3.47;1.60;;;;;;;;;;5003213;28;20029;-74
2022/05/24 10:16:20;;;;;;;4.13;1.67;;;;;;;;;;5018930;28;20497;-73
2022/05/24 10:19:11;;;;;;;4.60;1.70;;;;;;;;;;5021617;28;20313;-73
2022/05/24 10:22:13;;;;;;;6.73;2.00;;;;;;;;;;5020683;28;20372;-74
2022/05/24 10:25:09;;;;;;;4.03;1.77;;;;;;;;;;5020071;28;20550;-74
2022/05/24 10:28:08;;;;;;;5.63;1.60;;;;;;;;;;5008091;28;20064;-73
2022/05/24 10:30:59;;;;;;;10.20;2.88;;;;;;;;;;5018724;28;20560;-74
2022/05/24 10:39:29;;;;;;;12.18;1.80;;;;;;;;;;5020209;28;20056;-73
2022/05/24 10:42:10;;;;;;;4.68;2.25;;;;;;;;;;5020423;28;20029;-73
2022/05/24 10:44:53;;;;;;;9.82;2.25;;;;;;;;;;5021371;28;20489;-73
2022/05/24 10:47:27;;;;;;;3.72;2.60;;;;;;;;;;5017904;28;20675;-73
2022/05/24 10:50:00;;;;;;;6.18;1.92;;;;;;;;;;5002825;28;20326;-75
2022/05/24 10:52:43;;;;;;;5.93;2.03;;;;;;;;;;5019975;28;20091;-73
2022/05/24 10:55:17;;;;;;;2.50;1.88;;;;;;;;;;5020553;28;20104;-73
2022/05/24 10:57:49;;;;;;;4.72;2.22;;;;;;;;;;5011925;28;20543;-73
2022/05/24 11:00:23;;;;;;;2.30;2.10;;;;;;;;;;5019930;28;20042;-73
2022/05/24 11:03:03;;;;;;;6.50;2.63;;;;;;;;;;5024533;28;20794;-73
2022/05/24 11:05:32;;;;;;;4.85;2.28;;;;;;;;;;5018119;28;20023;-73
2022/05/24 11:08:10;;;;;;;10.90;2.22;;;;;;;;;;5019573;28;20501;-74
2022/05/24 11:10:40;;;;;;;6.15;2.28;;;;;;;;;;5019732;28;20025;-73
2022/05/24 11:13:11;;;;;;;2.75;2.17;;;;;;;;;;5020124;28;20847;-72
2022/05/24 11:15:41;;;;;;;4.10;2.22;;;;;;;;;;5018646;28;20049;-74
2022/05/24 11:18:23;;;;;;;6.68;2.90;;;;;;;;;;5017009;28;20129;-73
2022/05/24 11:20:59;;;;;;;6.63;2.67;;;;;;;;;;5023272;28;20236;-74
2022/05/24 11:23:51;;;;;;;4.20;3.00;;;;;;;;;;5020676;28;20025;-73
2022/05/24 11:26:24;;;;;;;4.93;3.40;;;;;;;;;;5017611;28;20156;-73
2022/05/24 11:29:24;;;;;;;8.63;3.17;;;;;;;;;;5020095;28;20128;-74
2022/05/24 11:32:02;;;;;;;9.45;3.60;;;;;;;;;;5020644;28;20033;-74
2022/05/24 11:34:34;;;;;;;4.35;3.05;;;;;;;;;;5016402;28;20106;-72
2022/05/24 11:37:19;;;;;;;5.30;3.08;;;;;;;;;;5013957;28;20029;-74
2022/05/24 11:39:46;;;;;;;8.07;3.33;;;;;;;;;;5039522;28;20112;-74
2022/05/24 11:42:32;;;;;;;12.10;3.40;;;;;;;;;;5004197;28;20033;-74
2022/05/24 11:44:59;;;;;;;9.27;3.63;;;;;;;;;;5025923;28;20111;-74
2022/05/24 11:47:39;;;;;;;5.95;3.70;;;;;;;;;;5013269;28;20049;-74
2022/05/24 11:50:35;;;;;;;5.20;3.13;;;;;;;;;;5018544;28;20086;-74
2022/05/24 11:53:04;;;;;;;5.18;2.65;;;;;;;;;;5017728;28;20091;-72
2022/05/24 11:56:03;;;;;;;4.85;2.63;;;;;;;;;;5024894;28;20036;-73
2022/05/24 11:58:31;;;;;;;4.82;2.25;;;;;;;;;;5017364;28;20574;-73
2022/05/24 12:01:40;;;;;;;5.65;2.25;;;;;;;;;;5021482;28;20040;-72
2022/05/24 12:10:24;;;;;;;2.33;2.13;;;;;;;;;;5024807;28;20966;-73
2022/05/24 12:12:53;;;;;;;5.13;2.00;;;;;;;;;;5025285;28;20061;-73
2022/05/24 12:15:30;;;;;;;2.55;2.15;;;;;;;;;;5020196;28;20405;-72
2022/05/24 12:17:59;;;;;;;6.57;2.20;;;;;;;;;;5018672;28;20061;-72
2022/05/24 12:20:34;;;;;;;2.38;1.98;;;;;;;;;;5018564;28;20044;-74
2022/05/24 12:23:14;;;;;;;4.93;2.00;;;;;;;;;;5020075;28;20334;-73
2022/05/24 12:25:54;;;;;;;4.75;2.55;;;;;;;;;;5019895;28;20025;-74
2022/05/24 12:28:26;;;;;;;3.53;2.20;;;;;;;;;;5021753;28;20037;-73
2022/05/24 12:30:54;;;;;;;8.05;2.30;;;;;;;;;;5020363;28;20480;-72
2022/05/24 12:33:41;;;;;;;3.85;2.30;;;;;;;;;;5021666;28;20079;-72
2022/05/24 12:36:30;;;;;;;4.20;2.28;;;;;;;;;;5015224;28;20040;-74
2022/05/24 12:39:08;;;;;;;4.38;2.20;;;;;;;;;;5022259;28;20025;-73
2022/05/24 12:41:42;;;;;;;4.80;2.28;;;;;;;;;;5020999;28;20030;-72
2022/05/24 12:44:23;;;;;;;4.40;1.98;;;;;;;;;;5021529;28;20030;-75
2022/05/24 12:47:11;;;;;;;4.30;2.28;;;;;;;;;;5019645;28;20018;-72
2022/05/24 12:49:53;;;;;;;4.55;2.53;;;;;;;;;;5019853;28;20044;-72
2022/05/24 12:52:30;;;;;;;3.58;2.55;;;;;;;;;;5019276;28;20135;-72
2022/05/24 12:55:02;;;;;;;4.95;2.75;;;;;;;;;;5019500;28;20125;-73
2022/05/24 12:57:39;;;;;;;5.20;2.75;;;;;;;;;;5015485;28;20453;-72
2022/05/24 13:00:21;;;;;;;5.45;2.97;;;;;;;;;;5021156;28;20504;-71
2022/05/24 13:02:51;;;;;;;11.35;2.17;;;;;;;;;;5021558;28;20045;-74
2022/05/24 13:05:24;;;;;;;7.03;2.78;;;;;;;;;;5017417;28;20029;-72
2022/05/24 13:08:01;;;;;;;3.42;2.47;;;;;;;;;;5000565;28;20029;-71
2022/05/24 13:10:39;;;;;;;3.33;2.50;;;;;;;;;;5025058;28;20029;-72
2022/05/24 13:13:11;;;;;;;3.25;2.33;;;;;;;;;;5020026;28;20037;-72
2022/05/24 13:15:39;;;;;;;;;;;;;;;;;;5019958;28;21165;-70
2022/05/24 13:18:16;;;;;;;4.45;2.28;;;;;;;;;;5016872;28;19956;-73
2022/05/24 13:20:46;;;;;;;3.85;2.38;;;;;;;;;;5021444;28;20037;-72
2022/05/24 13:23:15;;;;;;;4.00;2.00;;;;;;;;;;5020942;28;20041;-72
2022/05/24 13:25:50;;;;;;;5.72;2.42;;;;;;;;;;5019228;28;20041;-72
2022/05/24 13:28:41;;;;;;;3.03;1.88;;;;;;;;;;5018707;28;20052;-72
2022/05/24 13:34:14;;;;;;;3.85;1.83;;;;;;;;;;5021869;28;20496;-72
2022/05/24 13:36:52;;;;;;;1.83;1.67;;;;;;;;;;5016289;28;20037;-73
2022/05/24 13:39:24;;;;;;;4.43;2.05;;;;;;;;;;5022101;28;20532;-75
2022/05/24 13:42:05;;;;;;;2.85;1.70;;;;;;;;;;5020758;28;20292;-74
2022/05/24 13:44:36;;;;;;;2.60;1.58;;;;;;;;;;5019879;28;20134;-74
2022/05/24 13:47:21;;;;;;;2.95;1.55;;;;;;;;;;5018644;28;20080;-75
2022/05/24 13:49:47;;;;;;;2.50;1.98;;;;;;;;;;5021199;28;20655;-74
2022/05/24 13:52:37;;;;;;;2.65;2.33;;;;;;;;;;5022114;28;20138;-75
2022/05/24 13:55:21;;;;;;;3.10;1.80;;;;;;;;;;5020535;28;20064;-73
2022/05/24 13:58:16;;;;;;;2.83;1.67;;;;;;;;;;5016835;28;20028;-75
2022/05/24 14:00:44;;;;;;;4.80;1.50;;;;;;;;;;5015393;28;20045;-73
2022/05/24 14:04:04;;;;;;;5.53;1.98;;;;;;;;;;5021445;28;20070;-74
2022/05/24 14:06:30;;;;;;;1.85;1.67;;;;;;;;;;4995583;28;20054;-72
2022/05/24 14:08:58;;;;;;;4.30;1.67;;;;;;;;;;5014425;28;20128;-73
2022/05/24 14:11:29;;;;;;;3.63;1.75;;;;;;;;;;5024921;28;20132;-72
2022/05/24 14:13:54;;;;;;;2.70;1.40;;;;;;;;;;5021484;28;20033;-73
2022/05/24 14:16:21;;;;;;;9.57;2.17;;;;;;;;;;5018041;28;20394;-74
2022/05/24 14:18:47;;;;;;;9.80;2.05;;;;;;;;;;5020035;28;20382;-73
2022/05/24 14:21:14;;;;;;;4.10;1.40;;;;;;;;;;5020498;28;20064;-73
2022/05/24 14:23:40;;;;;;;4.55;1.45;;;;;;;;;;5018819;28;20115;-73
2022/05/24 14:26:06;;;;;;;1.50;1.15;;;;;;;;;;5017341;28;20112;-72
2022/05/24 14:28:33;;;;;;;3.35;1.50;;;;;;;;;;5019061;28;20029;-72
2022/05/24 14:31:05;;;;;;;3.28;1.40;;;;;;;;;;5023220;28;20052;-72
2022/05/24 14:33:33;;;;;;;1.75;1.65;;;;;;;;;;5020629;28;20436;-72
2022/05/24 14:35:59;;;;;;;4.60;1.73;;;;;;;;;;5016950;28;20190;-72
2022/05/24 14:38:25;;;;;;;2.45;1.50;;;;;;;;;;5025600;28;20585;-73
2022/05/24 14:40:51;;;;;;;3.33;1.38;;;;;;;;;;5007168;28;20025;-72
2022/05/24 14:43:23;;;;;;;3.25;1.63;;;;;;;;;;5026621;28;20099;-73
2022/05/24 14:45:51;;;;;;;6.30;1.42;;;;;;;;;;5032374;28;20021;-73
2022/05/24 14:48:17;;;;;;;7.47;1.92;;;;;;;;;;5026705;28;20099;-74
2022/05/24 14:50:43;;;;;;;2.17;1.33;;;;;;;;;;5037027;28;20407;-73
2022/05/24 14:53:09;;;;;;;4.00;1.58;;;;;;;;;;5041450;28;20037;-72
2022/05/24 14:55:36;;;;;;;3.80;1.40;;;;;;;;;;5032410;28;20035;-72
2022/05/24 14:58:03;;;;;;;5.25;2.03;;;;;;;;;;5032937;28;20080;-72
2022/05/24 15:00:31;;;;;;;6.03;1.48;;;;;;;;;;5030144;28;20216;-72
2022/05/24 15:02:57;;;;;;;2.50;1.70;;;;;;;;;;5021030;28;20075;-73
2022/05/24 15:05:24;;;;;;;3.10;1.13;;;;;;;;;;5035782;28;20028;-74
2022/05/24 15:16:19;;;;;;;2.83;1.77;;;;;;;;;;5027907;28;20582;-73
2022/05/24 15:18:45;;;;;;;2.42;1.30;;;;;;;;;;5042739;28;20067;-72
2022/05/24 15:21:11;;;;;;;2.50;1.48;;;;;;;;;;5039833;28;20033;-72
2022/05/24 15:23:39;;;;;;;2.70;1.60;;;;;;;;;;5043224;28;20033;-73
2022/05/24 15:26:13;;;;;;;4.55;1.90;;;;;;;;;;5027883;28;20108;-73
2022/05/24 15:28:40;;;;;;;7.03;2.55;;;;;;;;;;5056790;28;20029;-75
2022/05/24 15:31:07;;;;;;;5.07;1.85;;;;;;;;;;5028964;28;20029;-72
2022/05/24 15:33:34;;;;;;;2.53;1.45;;;;;;;;;;5025232;28;20064;-73
2022/05/24 15:36:00;;;;;;;4.82;1.45;;;;;;;;;;5013417;28;20040;-72
2022/05/24 15:38:26;;;;;;;5.75;1.73;;;;;;;;;;5037770;28;20405;-74
2022/05/24 15:40:51;;;;;;;5.78;2.08;;;;;;;;;;5029661;28;20420;-73
2022/05/24 15:43:18;;;;;;;2.20;1.13;;;;;;;;;;5030663;28;20083;-72
2022/05/24 15:45:44;;;;;;;5.03;1.48;;;;;;;;;;5038148;28;20556;-73
2022/05/24 15:48:10;;;;;;;6.80;2.30;;;;;;;;;;5037909;28;20109;-72
2022/05/24 15:50:36;;;;;;;3.67;1.77;;;;;;;;;;5034808;28;20025;-74
2022/05/24 15:53:02;;;;;;;2.63;1.80;;;;;;;;;;5053537;28;20466;-73
2022/05/24 15:55:29;;;;;;;4.25;1.92;;;;;;;;;;5042723;28;20075;-72